Airfield :
LOGIN :

Register | Disclaimer

   EN    FR    IT 

 










Legend :    VFR   Marginal VFR   IFR   Intensive IFR   Very Intensive IFR
Visi :
Ceiling :
>= 8 km
>= 3000ft
5 to 8 km
1000 to 3000 ft
1500m to 5 km
500 to 1000 ft
800 to 1500m
200 to 500 ft
< 800m
< 200 ft
Symbols :   Thunderstorms  Fog  Heavy snow  Heavy precipitations  Wind > 20 kt
SIGMETs :     Misc.  Thunderstorms  Icing  Turbulence  Mountain Waves  Volcanic Ashes






- Airport Elevation : 266 ft
- IATA code : NCL


EGNT - Newcastle

CURRENT METAR :
  • 022320Z AUTO 03007KT 010V070 9999 OVC004/// 12/11 Q1015

EXPIRED METARs :
  • 022250Z AUTO 01006KT 9999 BKN004/// 12/10 Q1015 RERA
  • 022220Z AUTO 01004KT 330V050 9999 RA NCD 12/10 Q1015
  • 022150Z AUTO 02008KT 9999 -RA NCD 13/11 Q1015 RERA
  • 022120Z AUTO 01006KT 9999 -RA NCD 13/11 Q1015

TAF TAF EGNT
Valid from the 03 at 00:00 until the 04 at 00:00 UTC


022254Z 0300/0324 01009KT 9999 BKN020
TEMPO 0300/0306 3500 +RA BKN004
TEMPO 0306/0312 6000 RA BKN010
PROB30
TEMPO 0312/0315 02015G25KT
PROB30
TEMPO 0312/0324 8000 -RA BKN014
ATIS : +44 191 214 3400



MET'MAP, your aeronautical weather chart ! - Copyright ORBIFLY December 2007 - Disclaimer

ORBIFLY MET'MAP TEAM :

Programming & Development : Alexandra Zaïnal
Concept & original design : Baudouin d'Aumeries
Assistance for programming : Marc-Olivier Méhu
Technical & hardware support : Manuel Goepfert

Contact : metmap@orbifly.com




SOURCES & CREDITS :

   NOAA